Saturday, February 24, 2018, 8:08 AM GMT
Back to Local

CWWE, Western Head, N. S.

Location: , , Canada Lat: 43.983
Local Time: 8:08 AM GMT ( 8:08 GMT) Lon: -64.667
Time Zone: GMT Elev: 29 ft

Show me the last for .
Show Coded

Time T Td Feel RH Dir Speed Gust Alt SLP Vis Weather Sky Remarks
2018-02-24 07:00 36 36 28 100 200° 10 - - 29.97 0 Pressure falling rapidly
1-hr Precip Total: 0.02"
2018-02-24 06:00 35 35 26 100 190° 14 - - 30.05 0 Pressure falling rapidly
1-hr Precip Total: 0.05"
2018-02-24 05:00 33 33 24 99 190° 14 - - 30.12 0 Pressure falling rapidly
1-hr Precip Total: 0.04"
2018-02-24 04:00 32 31 23 98 180° 12 - - 30.18 0 Pressure falling rapidly
1-hr Precip Total: 0.04"
2018-02-24 03:00 31 28 22 89 170° 9 - - 30.24 0 Pressure falling rapidly
2018-02-24 02:00 31 25 21 79 180° 13 - - 30.32 0 None
2018-02-24 01:00 30 26 18 84 180° 16 - - 30.37 0 Peak wind: 20 mph (18 kts) from 180° at 49 min
Pressure falling rapidly
2018-02-24 00:00 29 23 18 76 180° 15 - - 30.43 0 Peak wind: 19 mph (17 kts) from 180° at 47 min
2018-02-23 23:00 28 21 18 72 190° 13 - - 30.47 0 None
2018-02-23 22:00 28 19 18 69 190° 12 - - 30.51 0 None
2018-02-23 21:00 29 18 20 63 180° 12 - - 30.52 0 None
2018-02-23 20:00 28 17 20 61 180° 8 - - 30.56 0 None
2018-02-23 19:00 29 18 22 64 160° 7 - - 30.59 0 None
2018-02-23 18:00 29 15 22 55 150° 7 - - 30.62 0 None
2018-02-23 17:00 29 15 25 55 130° 5 - - 30.65 0 None
2018-02-23 16:00 31 15 26 50 100° 5 - - 30.69 0 None
2018-02-23 15:00 29 12 24 48 80° 5 - - 30.71 0 None
2018-02-23 14:00 28 11 23 48 40° 5 - - 30.72 0 None
2018-02-23 13:00 26 10 20 51 30° 5 - - 30.72 0 None
2018-02-23 12:00 23 12 15 62 10° 6 - - 30.72 0 None
2018-02-23 11:00 23 13 15 64 20° 7 - - 30.70 0 None
2018-02-23 10:00 24 15 16 68 10° 6 - - 30.67 0 None
2018-02-23 09:00 24 14 16 64 360° 7 - - 30.67 0 None

Support USWX by starting your Amazon purchase here.